Time;durP1;ratioP1;P1;durP2;ratioP2;P2;SDS_P1;SDS_P2;PMS_P1;PMS_P2;Temp;Humidity;BMP_temperature;BMP_pressure;BME280_temperature;BME280_humidity;BME280_pressure;Samples;Min_cycle;Max_cycle;Signal;HPM_P1;HPM_P2
2023/03/16 00:00:43;;;;;;;6.75;2.30;;;2.60;99.90;;;;;;5056296;28;20078;-80
2023/03/16 00:03:10;;;;;;;12.27;2.55;;;2.60;99.90;;;;;;5077076;28;20040;-84
2023/03/16 00:05:37;;;;;;;6.85;2.45;;;2.70;99.90;;;;;;5092747;28;20059;-80
2023/03/16 00:08:03;;;;;;;9.82;2.20;;;2.70;99.90;;;;;;5053859;28;20119;-84
2023/03/16 00:10:28;;;;;;;11.57;2.97;;;2.80;99.90;;;;;;5064496;28;20476;-80
2023/03/16 00:12:55;;;;;;;8.30;2.17;;;2.80;99.90;;;;;;5071801;28;20032;-80
2023/03/16 00:15:21;;;;;;;6.78;2.80;;;2.90;99.90;;;;;;5064364;28;20052;-82
2023/03/16 00:17:47;;;;;;;6.47;2.50;;;2.90;99.90;;;;;;5090205;28;20047;-80
2023/03/16 00:20:15;;;;;;;6.07;2.80;;;2.90;99.90;;;;;;5090290;28;20066;-81
2023/03/16 00:22:41;;;;;;;5.82;2.17;;;3.00;99.90;;;;;;5089524;28;20060;-83
2023/03/16 00:25:08;;;;;;;11.02;2.45;;;3.00;99.90;;;;;;5061822;28;20068;-83
2023/03/16 00:27:34;;;;;;;7.18;2.40;;;3.00;99.90;;;;;;5070824;28;20123;-80
2023/03/16 00:30:02;;;;;;;7.18;2.67;;;3.10;99.90;;;;;;5071099;28;20484;-80
2023/03/16 00:32:33;;;;;;;5.05;2.20;;;3.10;99.90;;;;;;5054134;28;20052;-82
2023/03/16 00:35:00;;;;;;;4.95;2.60;;;3.10;99.90;;;;;;5054767;28;20469;-80
2023/03/16 00:37:27;;;;;;;6.38;2.53;;;3.10;99.90;;;;;;5072897;28;20049;-85
2023/03/16 00:39:55;;;;;;;11.90;2.50;;;3.00;99.90;;;;;;5059320;28;20045;-81
2023/03/16 00:42:26;;;;;;;5.90;2.55;;;3.10;99.90;;;;;;5085960;28;20583;-86
2023/03/16 00:44:56;;;;;;;4.88;2.60;;;3.10;99.90;;;;;;5067686;28;20067;-81
2023/03/16 00:47:33;;;;;;;7.53;2.85;;;3.20;99.90;;;;;;5066629;28;20389;-86
2023/03/16 00:50:00;;;;;;;5.40;2.70;;;3.20;99.90;;;;;;5078684;28;20531;-84
2023/03/16 00:52:26;;;;;;;6.25;3.08;;;3.10;99.90;;;;;;5074069;28;20063;-81
2023/03/16 00:54:54;;;;;;;5.22;2.80;;;3.20;99.90;;;;;;5056051;28;20182;-83
2023/03/16 00:57:23;;;;;;;11.45;4.07;;;3.30;99.90;;;;;;5090354;28;20130;-80
2023/03/16 00:59:49;;;;;;;6.18;2.92;;;3.30;99.90;;;;;;5058239;28;20087;-80
2023/03/16 01:02:18;;;;;;;7.57;3.50;;;3.40;99.90;;;;;;5067130;28;20430;-81
2023/03/16 01:04:43;;;;;;;10.05;3.20;;;3.40;99.90;;;;;;5090875;28;20059;-81
2023/03/16 01:07:12;;;;;;;10.02;3.70;;;3.50;99.90;;;;;;5065884;28;20037;-80
2023/03/16 01:09:39;;;;;;;8.63;3.83;;;3.50;99.90;;;;;;5060756;28;20066;-80
2023/03/16 01:12:10;;;;;;;5.32;2.88;;;3.50;99.90;;;;;;5058372;28;20119;-86
2023/03/16 01:14:35;;;;;;;11.30;3.53;;;3.50;99.90;;;;;;5069784;28;20045;-81
2023/03/16 01:17:03;;;;;;;6.40;3.05;;;3.50;99.90;;;;;;5039443;28;20500;-81
2023/03/16 01:19:32;;;;;;;6.30;3.17;;;3.50;99.90;;;;;;5088115;28;20040;-81
2023/03/16 01:21:58;;;;;;;6.60;3.03;;;3.60;99.90;;;;;;5074884;28;20036;-81
2023/03/16 01:24:24;;;;;;;7.72;3.28;;;3.60;99.90;;;;;;5077176;28;20476;-80
2023/03/16 01:26:50;;;;;;;7.55;3.72;;;3.60;99.90;;;;;;5064325;28;20501;-81
2023/03/16 01:29:15;;;;;;;8.15;3.53;;;3.60;99.90;;;;;;5082366;28;20048;-81
2023/03/16 01:31:41;;;;;;;7.05;3.88;;;3.60;99.90;;;;;;5072826;28;20050;-81
2023/03/16 01:34:07;;;;;;;10.43;3.60;;;3.60;99.90;;;;;;5084888;28;20045;-82
2023/03/16 01:36:32;;;;;;;8.15;3.63;;;3.60;99.90;;;;;;5064167;28;20064;-83
2023/03/16 01:38:59;;;;;;;5.78;3.78;;;3.70;99.90;;;;;;5076254;28;20059;-81
2023/03/16 01:41:26;;;;;;;8.40;3.72;;;3.60;99.90;;;;;;5069056;28;20040;-80
2023/03/16 01:43:57;;;;;;;6.53;3.83;;;3.60;99.90;;;;;;5073895;28;20400;-81
2023/03/16 01:46:27;;;;;;;7.95;3.80;;;3.60;99.90;;;;;;5073370;28;20098;-79
2023/03/16 01:49:08;;;;;;;7.28;3.58;;;3.60;99.90;;;;;;5092428;28;20905;-82
2023/03/16 01:51:41;;;;;;;10.98;4.22;;;3.60;99.90;;;;;;5095385;28;20498;-86
2023/03/16 01:54:28;;;;;;;9.63;3.90;;;3.60;99.90;;;;;;5086957;28;20547;-81
2023/03/16 01:57:06;;;;;;;7.40;4.00;;;3.60;99.90;;;;;;5088304;28;20048;-81
2023/03/16 01:59:41;;;;;;;12.82;4.03;;;3.50;99.90;;;;;;5089468;28;20075;-85
2023/03/16 02:02:09;;;;;;;7.80;3.97;;;3.40;99.90;;;;;;5079144;28;20063;-81
2023/03/16 02:04:46;;;;;;;9.85;4.07;;;3.40;99.90;;;;;;5094542;28;20100;-81
2023/03/16 02:07:15;;;;;;;8.10;4.60;;;3.30;99.90;;;;;;5074955;28;20124;-82
2023/03/16 02:09:47;;;;;;;6.90;3.90;;;3.30;99.90;;;;;;5069543;28;20055;-82
2023/03/16 02:12:17;;;;;;;8.55;4.15;;;3.30;99.90;;;;;;5080544;28;20051;-80
2023/03/16 02:14:44;;;;;;;7.90;3.85;;;3.30;99.90;;;;;;5101844;28;20059;-81
2023/03/16 02:17:11;;;;;;;10.80;3.75;;;3.30;99.90;;;;;;5073901;28;20082;-84
2023/03/16 02:20:10;;;;;;;11.32;3.92;;;3.20;99.90;;;;;;5066187;28;20503;-85
2023/03/16 02:22:46;;;;;;;10.95;4.05;;;3.20;99.90;;;;;;5067904;28;20516;-85
2023/03/16 02:25:15;;;;;;;14.35;4.13;;;3.30;99.90;;;;;;5090576;28;20059;-81
2023/03/16 02:28:02;;;;;;;8.00;3.25;;;3.30;99.90;;;;;;5088113;28;20571;-82
2023/03/16 02:30:29;;;;;;;7.57;4.20;;;3.30;99.90;;;;;;5055167;28;20037;-80
2023/03/16 02:32:55;;;;;;;8.02;3.60;;;3.40;99.90;;;;;;5080283;28;20052;-80
2023/03/16 02:35:21;;;;;;;5.68;3.17;;;3.30;99.90;;;;;;5079337;28;20056;-80
2023/03/16 02:37:47;;;;;;;8.57;3.38;;;3.30;99.90;;;;;;5067807;28;20106;-81
2023/03/16 02:40:21;;;;;;;6.72;3.90;;;3.30;99.90;;;;;;5050670;28;20127;-81
2023/03/16 02:43:09;;;;;;;7.07;3.88;;;3.40;99.90;;;;;;5092067;28;20093;-85
2023/03/16 02:45:57;;;;;;;8.13;3.17;;;3.40;99.90;;;;;;5083821;28;20081;-80
2023/03/16 02:48:27;;;;;;;6.38;3.65;;;3.40;99.90;;;;;;5072221;28;20504;-81
2023/03/16 02:50:53;;;;;;;6.35;3.60;;;3.40;99.90;;;;;;5071156;28;20052;-81
2023/03/16 02:53:19;;;;;;;8.32;4.55;;;3.50;99.90;;;;;;5079824;28;20126;-81
2023/03/16 02:55:46;;;;;;;5.57;3.28;;;3.50;99.90;;;;;;5071022;28;20040;-80
2023/03/16 02:58:13;;;;;;;7.22;3.70;;;3.50;99.90;;;;;;5081053;28;20115;-80
2023/03/16 03:00:39;;;;;;;8.30;3.50;;;3.50;99.90;;;;;;5089065;28;20462;-80
2023/03/16 03:03:07;;;;;;;8.20;3.67;;;3.60;99.90;;;;;;5073694;28;20043;-79
2023/03/16 03:05:33;;;;;;;5.13;3.40;;;3.60;99.90;;;;;;5058266;28;20055;-81
2023/03/16 03:07:58;;;;;;;6.18;3.72;;;3.60;99.90;;;;;;5071692;28;20048;-79
2023/03/16 03:10:24;;;;;;;7.93;3.50;;;3.70;99.90;;;;;;5073930;28;20078;-81
2023/03/16 03:12:50;;;;;;;8.57;3.55;;;3.70;99.90;;;;;;5054081;28;20121;-80
2023/03/16 03:15:17;;;;;;;6.80;3.50;;;3.70;99.90;;;;;;5061664;28;20055;-79
2023/03/16 03:17:44;;;;;;;7.80;3.97;;;3.70;99.90;;;;;;5076385;28;20066;-86
2023/03/16 03:20:15;;;;;;;8.07;3.67;;;3.70;99.90;;;;;;5089569;28;20036;-85
2023/03/16 03:22:46;;;;;;;8.40;3.80;;;3.70;99.90;;;;;;5082996;28;20436;-80
2023/03/16 03:25:14;;;;;;;10.60;3.50;;;3.70;99.90;;;;;;5062717;28;20048;-86
2023/03/16 03:27:41;;;;;;;7.15;3.55;;;3.80;99.90;;;;;;5088735;28;20044;-80
2023/03/16 03:30:13;;;;;;;8.45;3.30;;;3.80;99.90;;;;;;5090319;28;20075;-81
2023/03/16 03:32:39;;;;;;;6.40;3.45;;;3.80;99.90;;;;;;5077181;28;20165;-79
2023/03/16 03:35:06;;;;;;;8.43;3.30;;;3.80;99.90;;;;;;5072369;28;20083;-84
2023/03/16 03:37:31;;;;;;;10.35;3.90;;;3.80;99.90;;;;;;5065558;28;20044;-81
2023/03/16 03:39:57;;;;;;;7.68;3.50;;;3.80;99.90;;;;;;5081199;28;20402;-85
2023/03/16 03:42:23;;;;;;;9.15;3.50;;;3.80;99.90;;;;;;5072634;28;20033;-81
2023/03/16 03:44:52;;;;;;;8.20;3.83;;;3.80;99.90;;;;;;5072252;28;20059;-86
2023/03/16 03:47:20;;;;;;;7.45;3.30;;;3.80;99.90;;;;;;5071359;28;20044;-80
2023/03/16 03:49:45;;;;;;;6.28;3.25;;;3.80;99.90;;;;;;5091007;28;20044;-81
2023/03/16 03:52:11;;;;;;;8.65;4.20;;;3.80;99.90;;;;;;5042557;28;20388;-80
2023/03/16 03:54:37;;;;;;;8.25;3.25;;;3.80;99.90;;;;;;5086392;28;20108;-84
2023/03/16 03:57:03;;;;;;;7.43;3.45;;;3.80;99.90;;;;;;5057810;28;20044;-82
2023/03/16 03:59:29;;;;;;;9.13;3.70;;;3.80;99.90;;;;;;5059029;28;20037;-81
2023/03/16 04:01:55;;;;;;;5.93;3.55;;;3.80;99.90;;;;;;5071897;28;20063;-81
2023/03/16 04:04:21;;;;;;;6.43;3.47;;;3.80;99.90;;;;;;5085710;28;20112;-81
2023/03/16 04:06:46;;;;;;;8.02;3.40;;;3.80;99.90;;;;;;5077108;28;20040;-81
2023/03/16 04:09:13;;;;;;;7.80;3.60;;;3.80;99.90;;;;;;5089346;28;20055;-81
2023/03/16 04:11:38;;;;;;;7.40;3.25;;;3.80;99.90;;;;;;5076953;28;20043;-81
2023/03/16 04:14:04;;;;;;;8.98;3.33;;;3.80;99.90;;;;;;5084087;28;20039;-80
2023/03/16 04:16:30;;;;;;;6.25;4.03;;;3.90;99.90;;;;;;5092462;28;20452;-81
2023/03/16 04:18:56;;;;;;;6.47;3.47;;;3.90;99.90;;;;;;5075824;28;20135;-82
2023/03/16 04:21:22;;;;;;;6.72;3.55;;;3.80;99.90;;;;;;5055175;28;20124;-82
2023/03/16 04:23:49;;;;;;;7.82;3.70;;;3.90;99.90;;;;;;5055192;28;20074;-81
2023/03/16 04:26:15;;;;;;;10.63;4.13;;;3.80;99.90;;;;;;5082552;28;20171;-81
2023/03/16 04:28:42;;;;;;;6.75;3.40;;;3.90;99.90;;;;;;5075737;28;20052;-81
2023/03/16 04:31:09;;;;;;;6.65;3.67;;;3.90;99.90;;;;;;5078757;28;20056;-81
2023/03/16 04:33:37;;;;;;;10.63;3.58;;;3.80;99.90;;;;;;5085864;28;20370;-81
2023/03/16 04:36:03;;;;;;;8.20;3.38;;;3.80;99.90;;;;;;5052697;28;20052;-81
2023/03/16 04:38:32;;;;;;;6.38;4.00;;;3.90;99.90;;;;;;5063475;28;20048;-85
2023/03/16 04:40:59;;;;;;;7.10;3.30;;;3.90;99.90;;;;;;5080603;28;20494;-81
2023/03/16 04:43:25;;;;;;;7.68;4.05;;;3.90;99.90;;;;;;5085512;28;20178;-80
2023/03/16 04:45:50;;;;;;;8.70;4.30;;;4.00;99.90;;;;;;5059835;28;20086;-81
2023/03/16 04:48:17;;;;;;;7.30;3.67;;;3.90;99.90;;;;;;5068815;28;20098;-81
2023/03/16 04:50:42;;;;;;;7.43;3.80;;;3.90;99.90;;;;;;5066095;28;20051;-81
2023/03/16 04:53:08;;;;;;;10.05;3.53;;;3.90;99.90;;;;;;5051759;28;20048;-80
2023/03/16 04:55:34;;;;;;;9.43;4.20;;;3.90;99.90;;;;;;5072868;28;20047;-79
2023/03/16 04:58:00;;;;;;;9.15;3.50;;;3.90;99.90;;;;;;5066176;28;20128;-81
2023/03/16 05:00:26;;;;;;;5.63;3.90;;;3.90;99.90;;;;;;5059095;28;20059;-81
2023/03/16 05:02:52;;;;;;;10.30;3.75;;;3.90;99.90;;;;;;5084699;28;20530;-81
2023/03/16 05:05:18;;;;;;;8.77;3.78;;;3.90;99.90;;;;;;5098635;28;20054;-81
2023/03/16 05:07:44;;;;;;;8.52;4.07;;;3.90;99.90;;;;;;5068188;28;20055;-84
2023/03/16 05:10:12;;;;;;;8.48;3.85;;;3.90;99.90;;;;;;5081801;28;20105;-80
2023/03/16 05:12:38;;;;;;;7.03;3.78;;;4.00;99.90;;;;;;5081545;28;20059;-81
2023/03/16 05:15:05;;;;;;;9.88;4.72;;;3.90;99.90;;;;;;5066729;28;20048;-79
2023/03/16 05:17:31;;;;;;;6.75;3.58;;;3.90;99.90;;;;;;5071992;28;20805;-81
2023/03/16 05:19:57;;;;;;;7.38;4.28;;;3.90;99.90;;;;;;5056078;28;20048;-81
2023/03/16 05:22:23;;;;;;;6.25;3.88;;;3.90;99.90;;;;;;5059564;28;20107;-82
2023/03/16 05:24:48;;;;;;;8.80;3.67;;;3.90;99.90;;;;;;5078628;28;20060;-80
2023/03/16 05:27:14;;;;;;;7.32;3.78;;;3.90;99.90;;;;;;5076932;28;20177;-83
2023/03/16 05:29:44;;;;;;;8.05;4.00;;;3.90;99.90;;;;;;5060290;28;20500;-80
2023/03/16 05:32:15;;;;;;;8.82;3.80;;;3.80;99.90;;;;;;5091874;28;20051;-86
2023/03/16 05:34:42;;;;;;;8.35;4.45;;;3.90;99.90;;;;;;5066301;28;20073;-78
2023/03/16 05:37:08;;;;;;;6.55;3.80;;;3.90;99.90;;;;;;5083730;28;20060;-82
2023/03/16 05:39:34;;;;;;;6.80;3.72;;;3.90;99.90;;;;;;5085463;28;20421;-83
2023/03/16 05:41:59;;;;;;;11.95;5.05;;;3.90;99.90;;;;;;5086199;28;20052;-81
2023/03/16 05:44:25;;;;;;;6.93;4.10;;;3.90;99.90;;;;;;5071351;28;20105;-81
2023/03/16 05:46:51;;;;;;;7.40;4.13;;;4.00;99.90;;;;;;5073938;28;20514;-81
2023/03/16 05:49:16;;;;;;;8.95;4.88;;;4.00;99.90;;;;;;5090795;28;20042;-78
2023/03/16 05:51:42;;;;;;;5.80;3.85;;;4.00;99.90;;;;;;5088915;28;20036;-79
2023/03/16 05:54:08;;;;;;;6.90;3.90;;;4.00;99.90;;;;;;5082487;28;20048;-80
2023/03/16 05:56:34;;;;;;;7.13;3.92;;;4.00;99.90;;;;;;5082053;28;20086;-81
2023/03/16 05:58:59;;;;;;;7.30;3.70;;;4.00;99.90;;;;;;5070119;28;20048;-78
2023/03/16 06:01:26;;;;;;;5.30;3.67;;;4.00;99.90;;;;;;5069999;28;20534;-80
2023/03/16 06:03:52;;;;;;;7.88;3.97;;;4.00;99.90;;;;;;5089352;28;20522;-83
2023/03/16 06:06:20;;;;;;;7.50;3.88;;;4.00;99.90;;;;;;5053132;28;20057;-84
2023/03/16 06:08:46;;;;;;;10.95;4.38;;;4.00;99.90;;;;;;5039548;28;20405;-83
2023/03/16 06:11:12;;;;;;;9.35;4.50;;;4.00;99.90;;;;;;5054489;28;20052;-84
2023/03/16 06:13:38;;;;;;;9.25;4.40;;;3.90;99.90;;;;;;5072083;28;20052;-84
2023/03/16 06:16:05;;;;;;;7.88;3.88;;;3.90;99.90;;;;;;5075590;28;20032;-84
2023/03/16 06:18:32;;;;;;;8.40;4.03;;;3.80;99.90;;;;;;5055653;28;20054;-83
2023/03/16 06:20:57;;;;;;;6.03;4.43;;;3.80;99.90;;;;;;5072765;28;20052;-84
2023/03/16 06:23:23;;;;;;;13.82;4.60;;;3.70;99.90;;;;;;5072162;28;20047;-80
2023/03/16 06:25:49;;;;;;;9.35;4.90;;;3.70;99.90;;;;;;5060611;28;20052;-84
2023/03/16 06:28:15;;;;;;;6.57;3.88;;;3.60;99.90;;;;;;5072301;28;20044;-84
2023/03/16 06:30:41;;;;;;;9.25;4.13;;;3.60;99.90;;;;;;5073914;28;20056;-82
2023/03/16 06:33:07;;;;;;;6.95;4.22;;;3.50;99.90;;;;;;5072386;28;20519;-84
2023/03/16 06:35:33;;;;;;;10.90;4.10;;;3.50;99.90;;;;;;5070225;28;20429;-83
2023/03/16 06:37:59;;;;;;;7.22;4.25;;;3.60;99.90;;;;;;5072817;28;20485;-84
2023/03/16 06:40:24;;;;;;;6.72;4.03;;;3.60;99.90;;;;;;5055108;28;20036;-83
2023/03/16 06:42:50;;;;;;;9.30;4.25;;;3.70;99.90;;;;;;5072786;28;20129;-83
2023/03/16 06:45:16;;;;;;;9.20;4.55;;;3.70;99.90;;;;;;5071780;28;20044;-84
2023/03/16 06:47:45;;;;;;;7.95;4.32;;;3.80;99.90;;;;;;5090208;28;20109;-83
2023/03/16 06:50:11;;;;;;;7.32;3.72;;;3.90;99.90;;;;;;5071411;28;20401;-81
2023/03/16 06:52:37;;;;;;;4.97;3.65;;;3.90;99.90;;;;;;5043974;28;20044;-83
2023/03/16 06:55:03;;;;;;;11.85;4.50;;;4.00;99.90;;;;;;5072402;28;20044;-84
2023/03/16 06:57:30;;;;;;;8.38;4.35;;;4.10;99.90;;;;;;5072013;28;20400;-83
2023/03/16 06:59:55;;;;;;;6.70;4.20;;;4.20;99.90;;;;;;5053778;28;20098;-84
2023/03/16 07:02:22;;;;;;;6.45;4.07;;;4.30;99.90;;;;;;5052676;28;20389;-84
2023/03/16 07:04:49;;;;;;;5.82;3.42;;;4.40;99.90;;;;;;5071118;28;20048;-84
2023/03/16 07:07:16;;;;;;;5.80;3.72;;;4.50;99.90;;;;;;5088193;28;20075;-84
2023/03/16 07:09:42;;;;;;;5.82;3.95;;;4.60;99.90;;;;;;5072762;28;20079;-83
2023/03/16 07:12:08;;;;;;;6.95;3.80;;;4.60;99.90;;;;;;5071561;28;20047;-81
2023/03/16 07:14:34;;;;;;;7.93;4.47;;;4.70;99.90;;;;;;5051538;28;20052;-85
2023/03/16 07:17:00;;;;;;;4.32;3.05;;;4.80;99.90;;;;;;5066479;28;20040;-84
2023/03/16 07:19:26;;;;;;;6.63;4.00;;;4.80;99.90;;;;;;5064848;28;20432;-85
2023/03/16 07:21:52;;;;;;;7.30;4.20;;;4.80;99.90;;;;;;5064984;28;20515;-83
2023/03/16 07:24:19;;;;;;;5.68;3.40;;;4.90;99.90;;;;;;5069021;28;20123;-84
2023/03/16 07:26:45;;;;;;;8.57;3.60;;;5.00;99.90;;;;;;5069255;28;20049;-85
2023/03/16 07:29:12;;;;;;;6.90;3.70;;;5.00;99.90;;;;;;5052996;28;20143;-84
2023/03/16 07:31:38;;;;;;;6.40;3.67;;;5.00;99.90;;;;;;5052195;28;20064;-85
2023/03/16 07:34:04;;;;;;;6.47;4.53;;;5.10;99.90;;;;;;5043894;28;20534;-84
2023/03/16 07:36:30;;;;;;;6.22;3.10;;;5.10;99.90;;;;;;5052365;28;20067;-84
2023/03/16 07:38:56;;;;;;;8.80;3.50;;;5.20;99.90;;;;;;5053618;28;20052;-85
2023/03/16 07:41:24;;;;;;;5.78;3.55;;;5.20;99.90;;;;;;5069737;28;20052;-82
2023/03/16 07:43:50;;;;;;;5.97;3.97;;;5.20;99.90;;;;;;5071011;28;20044;-83
2023/03/16 07:46:16;;;;;;;6.10;3.53;;;5.10;99.90;;;;;;5087624;28;20090;-84
2023/03/16 07:48:43;;;;;;;6.90;3.72;;;5.20;99.90;;;;;;5071636;28;20047;-84
2023/03/16 07:51:11;;;;;;;7.68;3.85;;;5.20;99.90;;;;;;5070321;28;20074;-84
2023/03/16 07:53:37;;;;;;;6.57;3.70;;;5.20;99.90;;;;;;5071127;28;20491;-83
2023/03/16 07:56:03;;;;;;;5.85;3.85;;;5.30;99.90;;;;;;5069271;28;20048;-85
2023/03/16 07:58:30;;;;;;;7.70;3.22;;;5.30;99.90;;;;;;5087596;28;20047;-85
2023/03/16 08:01:00;;;;;;;8.55;3.90;;;5.40;99.90;;;;;;5070649;28;20155;-85
2023/03/16 08:03:27;;;;;;;6.05;3.40;;;5.40;99.90;;;;;;5070689;28;20497;-84
2023/03/16 08:05:54;;;;;;;6.90;3.70;;;5.40;99.90;;;;;;5087711;28;20132;-84
2023/03/16 08:08:21;;;;;;;8.30;3.70;;;5.40;99.90;;;;;;5071078;28;20090;-80
2023/03/16 08:10:51;;;;;;;7.57;3.72;;;5.40;99.90;;;;;;5070040;28;20048;-84
2023/03/16 08:13:18;;;;;;;8.75;4.32;;;5.40;99.90;;;;;;5088307;28;20052;-84
2023/03/16 08:15:57;;;;;;;7.72;3.72;;;5.30;99.90;;;;;;5053332;28;20040;-84
2023/03/16 08:18:24;;;;;;;6.80;4.43;;;5.30;99.90;;;;;;5071209;28;20051;-84
2023/03/16 08:20:50;;;;;;;7.78;3.88;;;5.20;99.90;;;;;;5071110;28;20052;-84
2023/03/16 08:23:16;;;;;;;7.97;4.50;;;5.20;99.90;;;;;;5071394;28;20579;-84
2023/03/16 08:25:42;;;;;;;7.90;4.28;;;5.10;99.90;;;;;;5070669;28;20059;-84
2023/03/16 08:28:08;;;;;;;6.05;3.90;;;5.10;99.90;;;;;;5054874;28;20091;-84
2023/03/16 08:30:34;;;;;;;5.97;4.10;;;5.00;99.90;;;;;;5070627;28;20089;-84
2023/03/16 08:33:02;;;;;;;8.38;3.50;;;5.00;99.90;;;;;;5070660;28;20075;-82
2023/03/16 08:35:28;;;;;;;8.38;4.20;;;4.90;1.00;;;;;;5033102;28;20666;-82
2023/03/16 08:37:55;;;;;;;5.35;3.58;;;4.90;1.00;;;;;;5051328;28;20049;-83
2023/03/16 08:40:21;;;;;;;7.20;3.58;;;4.90;1.00;;;;;;5083966;28;20056;-83
2023/03/16 08:42:49;;;;;;;8.30;4.75;;;4.90;1.00;;;;;;5038425;28;20052;-83
2023/03/16 08:45:16;;;;;;;8.35;4.20;;;4.90;1.00;;;;;;5067563;28;20063;-83
2023/03/16 08:47:42;;;;;;;8.07;4.40;;;4.90;1.00;;;;;;5050679;28;20049;-81
2023/03/16 08:50:14;;;;;;;7.28;3.92;;;4.90;1.00;;;;;;5067550;28;20062;-83
2023/03/16 08:52:40;;;;;;;9.57;4.75;;;4.90;1.00;;;;;;5049661;28;20102;-83
2023/03/16 08:55:08;;;;;;;7.22;3.90;;;4.90;1.00;;;;;;5067790;28;20455;-83
2023/03/16 08:57:34;;;;;;;9.95;4.78;;;4.90;1.00;;;;;;5033521;28;20117;-83
2023/03/16 09:00:00;;;;;;;8.27;4.45;;;4.80;1.00;;;;;;5067905;28;20475;-83
2023/03/16 09:02:26;;;;;;;9.07;4.95;;;5.00;1.00;;;;;;5050516;28;20052;-83
2023/03/16 09:04:52;;;;;;;9.00;4.38;;;4.90;1.00;;;;;;5067397;28;20060;-83
2023/03/16 09:07:18;;;;;;;6.85;4.38;;;4.90;1.00;;;;;;5084296;28;20044;-82
2023/03/16 09:09:45;;;;;;;9.45;4.72;;;4.90;1.00;;;;;;5067554;28;20052;-82
2023/03/16 09:12:11;;;;;;;7.53;4.68;;;4.90;7.00;;;;;;5050548;28;20053;-83
2023/03/16 09:14:38;;;;;;;8.15;5.25;;;4.90;21.40;;;;;;5066872;28;20048;-82
2023/03/16 09:17:06;;;;;;;12.57;5.03;;;5.00;64.70;;;;;;5033283;28;20074;-82
2023/03/16 09:19:32;;;;;;;10.15;4.93;;;4.80;95.90;;;;;;5042549;28;20045;-83
2023/03/16 09:21:59;;;;;;;10.27;4.97;;;4.80;99.90;;;;;;5062497;28;20496;-83
2023/03/16 09:24:25;;;;;;;9.15;4.82;;;4.80;99.90;;;;;;5067516;28;20098;-83
2023/03/16 09:26:51;;;;;;;11.85;5.07;;;4.90;99.90;;;;;;5066170;28;20140;-82
2023/03/16 09:29:17;;;;;;;8.30;5.13;;;4.90;99.90;;;;;;5067606;28;20821;-82
2023/03/16 09:31:44;;;;;;;8.98;5.20;;;4.90;99.90;;;;;;5049643;28;20059;-82
2023/03/16 09:34:10;;;;;;;10.82;5.30;;;5.00;99.90;;;;;;5067061;28;20037;-83
2023/03/16 09:36:36;;;;;;;10.10;5.28;;;5.00;99.90;;;;;;5047224;28;20064;-82
2023/03/16 09:39:02;;;;;;;11.40;5.60;;;5.10;99.90;;;;;;5035046;28;20091;-82
2023/03/16 09:41:52;;;;;;;7.82;5.25;;;5.20;99.90;;;;;;5066296;28;20052;-82
2023/03/16 09:44:50;;;;;;;11.45;5.85;;;5.30;99.90;;;;;;5062072;28;20047;-81
2023/03/16 09:47:27;;;;;;;12.45;5.55;;;5.50;99.90;;;;;;5009474;28;20060;-82
2023/03/16 09:50:05;;;;;;;10.27;5.57;;;5.60;99.90;;;;;;5045223;28;20580;-82
2023/03/16 09:52:59;;;;;;;8.25;5.15;;;5.60;99.90;;;;;;5063676;28;20083;-82
2023/03/16 09:55:30;;;;;;;13.88;5.30;;;5.80;99.90;;;;;;5064038;28;20091;-82
2023/03/16 09:58:03;;;;;;;9.05;5.10;;;5.90;99.90;;;;;;5050938;28;20052;-82
2023/03/16 10:00:58;;;;;;;9.90;5.55;;;5.90;99.90;;;;;;5062608;28;20041;-82
2023/03/16 10:03:56;;;;;;;11.75;6.03;;;5.90;99.90;;;;;;5050819;28;20048;-82
2023/03/16 10:06:23;;;;;;;8.13;5.78;;;6.00;99.90;;;;;;5059413;28;20040;-81
2023/03/16 10:09:11;;;;;;;9.00;5.47;;;5.90;99.90;;;;;;5079869;28;20098;-81
2023/03/16 10:11:38;;;;;;;10.85;6.07;;;5.90;99.90;;;;;;5060390;28;20073;-80
2023/03/16 10:14:22;;;;;;;11.80;5.68;;;5.90;99.90;;;;;;5075765;28;20047;-82
2023/03/16 10:17:16;;;;;;;7.68;5.55;;;5.90;99.90;;;;;;5067943;28;20061;-82
2023/03/16 10:19:53;;;;;;;11.70;6.03;;;6.00;99.90;;;;;;5060019;28;20133;-81
2023/03/16 10:22:20;;;;;;;9.85;5.45;;;6.00;99.90;;;;;;5070013;28;20085;-82
2023/03/16 10:25:11;;;;;;;13.02;5.57;;;5.90;99.90;;;;;;5070044;28;20044;-82
2023/03/16 10:27:42;;;;;;;10.13;5.60;;;6.00;99.90;;;;;;5070173;28;20048;-81
2023/03/16 10:30:24;;;;;;;12.23;5.22;;;6.00;99.90;;;;;;5069668;28;20576;-82
2023/03/16 10:32:51;;;;;;;10.98;5.82;;;6.00;99.90;;;;;;5069004;28;20097;-82
2023/03/16 10:35:44;;;;;;;8.57;4.65;;;6.00;99.90;;;;;;5067819;28;20118;-82
2023/03/16 10:38:38;;;;;;;11.88;5.35;;;6.10;99.90;;;;;;5067764;28;20052;-82
2023/03/16 10:41:20;;;;;;;6.72;4.68;;;6.10;99.90;;;;;;5077675;28;20091;-82
2023/03/16 10:43:56;;;;;;;8.73;5.05;;;6.10;99.90;;;;;;5068716;28;20128;-83
2023/03/16 10:46:24;;;;;;;10.18;5.47;;;6.10;99.90;;;;;;5051728;28;20210;-83
2023/03/16 10:49:00;;;;;;;12.55;5.13;;;6.20;99.90;;;;;;5068229;28;20076;-83
2023/03/16 10:51:28;;;;;;;;;;;6.10;99.90;;;;;;5051841;28;20106;-83
2023/03/16 10:54:01;;;;;;;8.43;5.35;;;6.00;99.90;;;;;;5067904;28;19920;-83
2023/03/16 10:56:34;;;;;;;8.52;5.03;;;6.00;99.90;;;;;;5052794;28;20621;-83
2023/03/16 10:59:00;;;;;;;7.32;4.25;;;5.90;99.90;;;;;;5067955;28;20401;-83
2023/03/16 11:01:28;;;;;;;10.93;4.30;;;5.90;99.90;;;;;;5039601;28;20640;-83
2023/03/16 11:03:56;;;;;;;8.65;4.40;;;6.00;99.90;;;;;;5066856;28;20097;-83
2023/03/16 11:06:23;;;;;;;6.57;4.22;;;6.00;99.90;;;;;;5057908;28;20410;-83
2023/03/16 11:08:51;;;;;;;9.00;4.28;;;6.10;99.90;;;;;;5066448;28;20068;-83
2023/03/16 11:11:28;;;;;;;7.40;4.38;;;6.10;99.90;;;;;;5051651;28;20056;-84
2023/03/16 11:13:59;;;;;;;11.02;5.07;;;6.10;99.90;;;;;;5049813;28;20040;-83
2023/03/16 11:16:59;;;;;;;11.00;4.80;;;6.20;99.90;;;;;;5067512;28;20045;-83
2023/03/16 11:19:33;;;;;;;7.60;5.15;;;6.20;99.90;;;;;;5075042;28;20047;-84
2023/03/16 11:22:16;;;;;;;8.10;5.57;;;6.30;99.90;;;;;;5060028;28;20123;-84
2023/03/16 11:25:05;;;;;;;10.48;5.05;;;6.30;99.90;;;;;;5058479;28;20084;-83
2023/03/16 11:27:57;;;;;;;7.50;4.22;;;6.30;99.90;;;;;;5064511;28;20060;-83
2023/03/16 11:30:48;;;;;;;7.65;4.78;;;6.30;99.90;;;;;;5060332;28;20506;-83
2023/03/16 11:33:15;;;;;;;7.97;4.40;;;6.20;99.90;;;;;;5065982;28;20412;-83
2023/03/16 11:35:59;;;;;;;11.98;5.07;;;6.10;99.90;;;;;;5064237;28;20168;-84
2023/03/16 11:38:39;;;;;;;9.38;5.90;;;6.20;99.90;;;;;;5067271;28;20508;-84
2023/03/16 11:41:10;;;;;;;7.38;4.57;;;6.10;99.90;;;;;;5071584;28;20469;-84
2023/03/16 11:43:49;;;;;;;10.32;4.90;;;6.10;99.90;;;;;;5069705;28;20056;-84
2023/03/16 11:46:26;;;;;;;10.07;4.43;;;6.20;99.90;;;;;;5065413;28;20048;-83
2023/03/16 11:49:25;;;;;;;8.90;4.30;;;6.30;99.90;;;;;;5088475;28;20079;-84
2023/03/16 11:52:19;;;;;;;6.78;4.40;;;6.40;99.90;;;;;;5070659;28;20048;-84
2023/03/16 11:55:13;;;;;;;7.68;4.22;;;6.50;99.90;;;;;;5071447;28;20421;-84
2023/03/16 11:58:06;;;;;;;6.55;4.30;;;6.70;99.90;;;;;;5012291;28;20059;-84
2023/03/16 12:00:40;;;;;;;7.82;4.40;;;6.70;99.90;;;;;;5071049;28;20047;-84
2023/03/16 12:03:24;;;;;;;6.55;4.03;;;6.70;99.90;;;;;;5069298;28;20131;-84
2023/03/16 12:06:00;;;;;;;8.82;4.50;;;6.70;99.90;;;;;;5057317;28;20090;-82
2023/03/16 12:08:54;;;;;;;7.80;3.67;;;6.80;99.90;;;;;;5088159;28;20046;-84
2023/03/16 12:11:25;;;;;;;7.20;4.25;;;7.00;99.90;;;;;;5059709;28;20083;-84
2023/03/16 12:14:10;;;;;;;7.20;3.90;;;7.20;99.90;;;;;;5086540;28;20055;-82
2023/03/16 12:16:45;;;;;;;5.53;3.72;;;7.50;99.90;;;;;;5053328;28;20044;-85
2023/03/16 12:19:23;;;;;;;11.43;4.67;;;7.70;99.90;;;;;;5069392;28;20062;-85
2023/03/16 12:22:07;;;;;;;7.25;3.78;;;8.00;99.90;;;;;;5070964;28;20044;-84
2023/03/16 12:24:41;;;;;;;6.57;3.75;;;8.20;99.90;;;;;;5071351;28;20044;-84
2023/03/16 12:27:41;;;;;;;5.95;3.80;;;8.40;62.00;;;;;;5069671;28;20076;-84
2023/03/16 12:30:08;;;;;;;5.05;3.60;;;8.40;1.00;;;;;;5052883;28;20067;-84
2023/03/16 12:32:37;;;;;;;6.80;3.65;;;8.30;1.00;;;;;;5060103;28;20504;-84
2023/03/16 12:35:18;;;;;;;7.28;3.55;;;8.20;1.00;;;;;;5065987;28;20040;-85
2023/03/16 12:38:02;;;;;;;7.35;3.75;;;8.20;1.00;;;;;;5053383;28;20048;-84
2023/03/16 12:40:42;;;;;;;4.25;3.17;;;8.30;1.00;;;;;;5087448;28;20059;-85
2023/03/16 12:43:11;;;;;;;6.40;3.80;;;8.30;1.00;;;;;;5068945;28;20066;-84
2023/03/16 12:45:58;;;;;;;4.53;3.42;;;8.50;1.00;;;;;;5070735;28;20051;-85
2023/03/16 12:48:29;;;;;;;4.05;3.17;;;8.60;1.00;;;;;;5069740;28;20044;-84
2023/03/16 12:51:00;;;;;;;8.45;3.05;;;8.70;1.00;;;;;;5087664;28;20048;-83
2023/03/16 12:53:42;;;;;;;4.80;3.03;;;8.70;1.00;;;;;;5059098;28;20131;-84
2023/03/16 12:56:10;;;;;;;3.95;2.80;;;8.70;1.00;;;;;;5069517;28;20454;-84
2023/03/16 12:58:44;;;;;;;6.22;2.90;;;8.50;1.00;;;;;;5087698;28;20056;-84
2023/03/16 13:01:14;;;;;;;5.60;3.40;;;8.50;1.00;;;;;;5097721;28;20051;-84
2023/03/16 13:03:41;;;;;;;4.95;2.95;;;8.40;1.00;;;;;;5086771;28;20044;-84
2023/03/16 13:06:17;;;;;;;6.38;3.67;;;8.40;1.00;;;;;;5067757;28;20481;-84
2023/03/16 13:08:49;;;;;;;5.85;3.65;;;8.30;1.00;;;;;;5068551;28;20537;-84
2023/03/16 13:11:15;;;;;;;5.60;2.92;;;8.20;1.00;;;;;;5057781;28;20137;-84
2023/03/16 13:13:51;;;;;;;4.22;3.00;;;8.10;1.00;;;;;;5045777;28;20516;-84